sensor_id;sensor_type;location;lat;lon;timestamp;P1;durP1;ratioP1;P2;durP2;ratioP2
12177;SDS011;6152;48.728;9.256;2023-01-09T00:00:17;5.83;;;4.57;;
12177;SDS011;6152;48.728;9.256;2023-01-09T00:02:44;5.60;;;4.87;;
12177;SDS011;6152;48.728;9.256;2023-01-09T00:05:11;6.47;;;4.30;;
12177;SDS011;6152;48.728;9.256;2023-01-09T00:07:39;6.00;;;4.40;;
12177;SDS011;6152;48.728;9.256;2023-01-09T00:10:06;7.47;;;4.83;;
12177;SDS011;6152;48.728;9.256;2023-01-09T00:12:34;6.20;;;3.60;;
12177;SDS011;6152;48.728;9.256;2023-01-09T00:15:00;5.57;;;4.10;;
12177;SDS011;6152;48.728;9.256;2023-01-09T00:17:26;5.30;;;4.30;;
12177;SDS011;6152;48.728;9.256;2023-01-09T00:19:52;7.43;;;4.50;;
12177;SDS011;6152;48.728;9.256;2023-01-09T00:22:19;5.17;;;4.27;;
12177;SDS011;6152;48.728;9.256;2023-01-09T00:24:45;5.07;;;3.90;;
12177;SDS011;6152;48.728;9.256;2023-01-09T00:27:11;6.33;;;4.50;;
12177;SDS011;6152;48.728;9.256;2023-01-09T00:29:38;5.53;;;4.10;;
12177;SDS011;6152;48.728;9.256;2023-01-09T00:32:06;5.47;;;4.37;;
12177;SDS011;6152;48.728;9.256;2023-01-09T00:34:34;6.27;;;4.10;;
12177;SDS011;6152;48.728;9.256;2023-01-09T00:37:02;6.27;;;4.70;;
12177;SDS011;6152;48.728;9.256;2023-01-09T00:39:35;5.33;;;4.20;;
12177;SDS011;6152;48.728;9.256;2023-01-09T00:42:02;4.90;;;4.00;;
12177;SDS011;6152;48.728;9.256;2023-01-09T00:44:32;5.67;;;4.33;;
12177;SDS011;6152;48.728;9.256;2023-01-09T00:47:10;4.60;;;3.60;;
12177;SDS011;6152;48.728;9.256;2023-01-09T00:49:43;5.27;;;4.10;;
12177;SDS011;6152;48.728;9.256;2023-01-09T00:52:11;4.37;;;3.80;;
12177;SDS011;6152;48.728;9.256;2023-01-09T00:54:38;4.57;;;3.80;;
12177;SDS011;6152;48.728;9.256;2023-01-09T00:57:06;4.90;;;3.60;;
12177;SDS011;6152;48.728;9.256;2023-01-09T00:59:35;5.13;;;3.70;;
12177;SDS011;6152;48.728;9.256;2023-01-09T01:02:02;4.10;;;3.50;;
12177;SDS011;6152;48.728;9.256;2023-01-09T01:04:28;3.37;;;3.07;;
12177;SDS011;6152;48.728;9.256;2023-01-09T01:07:12;4.43;;;3.47;;
12177;SDS011;6152;48.728;9.256;2023-01-09T01:09:57;4.43;;;3.03;;
12177;SDS011;6152;48.728;9.256;2023-01-09T01:12:23;4.27;;;2.40;;
12177;SDS011;6152;48.728;9.256;2023-01-09T01:14:50;3.27;;;2.73;;
12177;SDS011;6152;48.728;9.256;2023-01-09T01:17:17;2.10;;;1.73;;
12177;SDS011;6152;48.728;9.256;2023-01-09T01:19:43;2.17;;;1.43;;
12177;SDS011;6152;48.728;9.256;2023-01-09T01:22:09;1.70;;;1.60;;
12177;SDS011;6152;48.728;9.256;2023-01-09T01:24:35;1.03;;;0.97;;
12177;SDS011;6152;48.728;9.256;2023-01-09T01:27:01;2.30;;;1.20;;
12177;SDS011;6152;48.728;9.256;2023-01-09T01:29:28;1.23;;;1.10;;
12177;SDS011;6152;48.728;9.256;2023-01-09T01:31:54;1.70;;;1.40;;
12177;SDS011;6152;48.728;9.256;2023-01-09T01:34:20;0.97;;;0.80;;
12177;SDS011;6152;48.728;9.256;2023-01-09T01:36:46;0.90;;;0.90;;
12177;SDS011;6152;48.728;9.256;2023-01-09T01:39:12;0.77;;;0.70;;
12177;SDS011;6152;48.728;9.256;2023-01-09T01:41:38;0.60;;;0.60;;
12177;SDS011;6152;48.728;9.256;2023-01-09T01:44:05;1.50;;;0.77;;
12177;SDS011;6152;48.728;9.256;2023-01-09T01:46:52;0.70;;;0.60;;
12177;SDS011;6152;48.728;9.256;2023-01-09T01:49:20;1.83;;;0.90;;
12177;SDS011;6152;48.728;9.256;2023-01-09T01:51:48;0.60;;;0.40;;
12177;SDS011;6152;48.728;9.256;2023-01-09T01:54:19;0.70;;;0.63;;
12177;SDS011;6152;48.728;9.256;2023-01-09T01:56:50;0.70;;;0.50;;
12177;SDS011;6152;48.728;9.256;2023-01-09T01:59:37;0.60;;;0.50;;
12177;SDS011;6152;48.728;9.256;2023-01-09T02:02:06;0.40;;;0.40;;
12177;SDS011;6152;48.728;9.256;2023-01-09T02:04:36;0.50;;;0.40;;
12177;SDS011;6152;48.728;9.256;2023-01-09T02:07:07;0.60;;;0.47;;
12177;SDS011;6152;48.728;9.256;2023-01-09T02:09:34;0.47;;;0.47;;
12177;SDS011;6152;48.728;9.256;2023-01-09T02:12:12;0.40;;;0.37;;
12177;SDS011;6152;48.728;9.256;2023-01-09T02:14:41;0.40;;;0.40;;
12177;SDS011;6152;48.728;9.256;2023-01-09T02:31:46;0.20;;;0.20;;
12177;SDS011;6152;48.728;9.256;2023-01-09T02:34:29;0.40;;;0.30;;
12177;SDS011;6152;48.728;9.256;2023-01-09T02:37:10;0.20;;;0.20;;
12177;SDS011;6152;48.728;9.256;2023-01-09T02:42:38;0.30;;;0.30;;
12177;SDS011;6152;48.728;9.256;2023-01-09T02:45:06;0.20;;;0.20;;
12177;SDS011;6152;48.728;9.256;2023-01-09T02:50:04;1.40;;;0.30;;
12177;SDS011;6152;48.728;9.256;2023-01-09T03:00:56;0.53;;;0.30;;
12177;SDS011;6152;48.728;9.256;2023-01-09T03:08:55;1.13;;;0.30;;
12177;SDS011;6152;48.728;9.256;2023-01-09T03:11:25;0.10;;;0.10;;
12177;SDS011;6152;48.728;9.256;2023-01-09T03:13:58;0.10;;;0.10;;
12177;SDS011;6152;48.728;9.256;2023-01-09T03:16:31;0.20;;;0.20;;
12177;SDS011;6152;48.728;9.256;2023-01-09T03:19:05;0.10;;;0.10;;
12177;SDS011;6152;48.728;9.256;2023-01-09T03:21:35;0.47;;;0.20;;
12177;SDS011;6152;48.728;9.256;2023-01-09T03:24:02;0.10;;;0.10;;
12177;SDS011;6152;48.728;9.256;2023-01-09T03:26:29;1.17;;;0.10;;
12177;SDS011;6152;48.728;9.256;2023-01-09T03:28:55;0.10;;;0.10;;
12177;SDS011;6152;48.728;9.256;2023-01-09T03:31:23;0.98;;;0.10;;
12177;SDS011;6152;48.728;9.256;2023-01-09T03:33:49;0.00;;;0.00;;
12177;SDS011;6152;48.728;9.256;2023-01-09T03:36:15;0.00;;;0.00;;
12177;SDS011;6152;48.728;9.256;2023-01-09T03:38:43;0.45;;;0.10;;
12177;SDS011;6152;48.728;9.256;2023-01-09T03:41:09;0.00;;;0.00;;
12177;SDS011;6152;48.728;9.256;2023-01-09T03:43:35;0.00;;;0.00;;
12177;SDS011;6152;48.728;9.256;2023-01-09T03:46:01;0.22;;;0.00;;
12177;SDS011;6152;48.728;9.256;2023-01-09T03:48:28;0.08;;;0.08;;
12177;SDS011;6152;48.728;9.256;2023-01-09T03:50:54;0.17;;;0.10;;
12177;SDS011;6152;48.728;9.256;2023-01-09T03:53:21;1.05;;;0.22;;
12177;SDS011;6152;48.728;9.256;2023-01-09T03:55:51;0.28;;;0.10;;
12177;SDS011;6152;48.728;9.256;2023-01-09T03:58:19;0.00;;;0.00;;
12177;SDS011;6152;48.728;9.256;2023-01-09T04:00:47;0.10;;;0.10;;
12177;SDS011;6152;48.728;9.256;2023-01-09T04:03:15;0.10;;;0.10;;
12177;SDS011;6152;48.728;9.256;2023-01-09T04:05:44;0.82;;;0.10;;
12177;SDS011;6152;48.728;9.256;2023-01-09T04:08:11;0.10;;;0.10;;
12177;SDS011;6152;48.728;9.256;2023-01-09T04:10:38;0.10;;;0.10;;
12177;SDS011;6152;48.728;9.256;2023-01-09T04:13:04;0.10;;;0.10;;
12177;SDS011;6152;48.728;9.256;2023-01-09T04:15:30;0.00;;;0.00;;
12177;SDS011;6152;48.728;9.256;2023-01-09T04:17:56;0.20;;;0.10;;
12177;SDS011;6152;48.728;9.256;2023-01-09T04:20:22;0.20;;;0.20;;
12177;SDS011;6152;48.728;9.256;2023-01-09T04:22:48;0.47;;;0.20;;
12177;SDS011;6152;48.728;9.256;2023-01-09T04:25:14;0.10;;;0.10;;
12177;SDS011;6152;48.728;9.256;2023-01-09T04:27:41;1.80;;;0.10;;
12177;SDS011;6152;48.728;9.256;2023-01-09T04:30:07;0.10;;;0.10;;
12177;SDS011;6152;48.728;9.256;2023-01-09T04:32:33;0.20;;;0.05;;
12177;SDS011;6152;48.728;9.256;2023-01-09T04:34:59;0.00;;;0.00;;
12177;SDS011;6152;48.728;9.256;2023-01-09T04:37:26;0.00;;;0.00;;
12177;SDS011;6152;48.728;9.256;2023-01-09T04:39:52;0.00;;;0.00;;
12177;SDS011;6152;48.728;9.256;2023-01-09T04:42:20;0.00;;;0.00;;
12177;SDS011;6152;48.728;9.256;2023-01-09T04:44:46;0.00;;;0.00;;
12177;SDS011;6152;48.728;9.256;2023-01-09T04:47:12;0.13;;;0.13;;
12177;SDS011;6152;48.728;9.256;2023-01-09T04:49:38;0.05;;;0.00;;
12177;SDS011;6152;48.728;9.256;2023-01-09T04:52:05;0.30;;;0.00;;
12177;SDS011;6152;48.728;9.256;2023-01-09T04:54:31;0.00;;;0.00;;
12177;SDS011;6152;48.728;9.256;2023-01-09T04:56:58;0.00;;;0.00;;
12177;SDS011;6152;48.728;9.256;2023-01-09T04:59:24;0.15;;;0.00;;
12177;SDS011;6152;48.728;9.256;2023-01-09T05:01:50;0.05;;;0.05;;
12177;SDS011;6152;48.728;9.256;2023-01-09T05:04:18;0.00;;;0.00;;
12177;SDS011;6152;48.728;9.256;2023-01-09T05:06:44;0.00;;;0.00;;
12177;SDS011;6152;48.728;9.256;2023-01-09T05:09:10;0.52;;;0.32;;
12177;SDS011;6152;48.728;9.256;2023-01-09T05:11:36;0.05;;;0.05;;
12177;SDS011;6152;48.728;9.256;2023-01-09T05:14:02;0.08;;;0.08;;
12177;SDS011;6152;48.728;9.256;2023-01-09T05:16:29;1.65;;;0.00;;
12177;SDS011;6152;48.728;9.256;2023-01-09T05:18:55;0.10;;;0.00;;
12177;SDS011;6152;48.728;9.256;2023-01-09T05:21:25;1.75;;;0.00;;
12177;SDS011;6152;48.728;9.256;2023-01-09T05:23:51;0.43;;;0.00;;
12177;SDS011;6152;48.728;9.256;2023-01-09T05:26:18;0.00;;;0.00;;
12177;SDS011;6152;48.728;9.256;2023-01-09T05:28:49;0.60;;;0.10;;
12177;SDS011;6152;48.728;9.256;2023-01-09T05:31:15;0.10;;;0.03;;
12177;SDS011;6152;48.728;9.256;2023-01-09T05:33:42;0.50;;;0.05;;
12177;SDS011;6152;48.728;9.256;2023-01-09T05:36:09;0.00;;;0.00;;
12177;SDS011;6152;48.728;9.256;2023-01-09T05:38:35;0.00;;;0.00;;
12177;SDS011;6152;48.728;9.256;2023-01-09T05:41:01;0.43;;;0.10;;
12177;SDS011;6152;48.728;9.256;2023-01-09T05:43:27;0.10;;;0.10;;
12177;SDS011;6152;48.728;9.256;2023-01-09T05:45:53;0.22;;;0.10;;
12177;SDS011;6152;48.728;9.256;2023-01-09T05:48:19;0.70;;;0.00;;
12177;SDS011;6152;48.728;9.256;2023-01-09T05:50:46;0.20;;;0.10;;
12177;SDS011;6152;48.728;9.256;2023-01-09T05:53:21;0.20;;;0.00;;
12177;SDS011;6152;48.728;9.256;2023-01-09T05:55:50;0.30;;;0.10;;
12177;SDS011;6152;48.728;9.256;2023-01-09T05:58:16;0.32;;;0.15;;
12177;SDS011;6152;48.728;9.256;2023-01-09T06:00:42;0.00;;;0.00;;
12177;SDS011;6152;48.728;9.256;2023-01-09T06:03:08;0.80;;;0.10;;
12177;SDS011;6152;48.728;9.256;2023-01-09T06:05:34;0.68;;;0.10;;
12177;SDS011;6152;48.728;9.256;2023-01-09T06:08:00;1.17;;;0.00;;
12177;SDS011;6152;48.728;9.256;2023-01-09T06:10:26;0.60;;;0.10;;
12177;SDS011;6152;48.728;9.256;2023-01-09T06:12:52;0.00;;;0.00;;
12177;SDS011;6152;48.728;9.256;2023-01-09T06:15:19;0.90;;;0.10;;
12177;SDS011;6152;48.728;9.256;2023-01-09T06:17:45;0.10;;;0.10;;
12177;SDS011;6152;48.728;9.256;2023-01-09T06:20:11;0.20;;;0.10;;
12177;SDS011;6152;48.728;9.256;2023-01-09T06:22:38;0.22;;;0.20;;
12177;SDS011;6152;48.728;9.256;2023-01-09T06:25:04;1.10;;;0.00;;
12177;SDS011;6152;48.728;9.256;2023-01-09T06:27:31;0.00;;;0.00;;
12177;SDS011;6152;48.728;9.256;2023-01-09T06:29:57;0.10;;;0.10;;
12177;SDS011;6152;48.728;9.256;2023-01-09T06:32:23;0.13;;;0.03;;
12177;SDS011;6152;48.728;9.256;2023-01-09T06:34:49;0.10;;;0.10;;
12177;SDS011;6152;48.728;9.256;2023-01-09T06:37:15;1.35;;;0.20;;
12177;SDS011;6152;48.728;9.256;2023-01-09T06:39:41;0.10;;;0.10;;
12177;SDS011;6152;48.728;9.256;2023-01-09T06:42:07;0.20;;;0.10;;
12177;SDS011;6152;48.728;9.256;2023-01-09T06:44:33;0.13;;;0.10;;
12177;SDS011;6152;48.728;9.256;2023-01-09T06:47:01;0.10;;;0.10;;
12177;SDS011;6152;48.728;9.256;2023-01-09T06:49:27;0.10;;;0.10;;
12177;SDS011;6152;48.728;9.256;2023-01-09T06:51:54;0.50;;;0.10;;
12177;SDS011;6152;48.728;9.256;2023-01-09T06:54:20;0.55;;;0.10;;
12177;SDS011;6152;48.728;9.256;2023-01-09T06:56:46;0.10;;;0.10;;
12177;SDS011;6152;48.728;9.256;2023-01-09T06:59:12;0.47;;;0.17;;
12177;SDS011;6152;48.728;9.256;2023-01-09T07:01:38;0.82;;;0.10;;
12177;SDS011;6152;48.728;9.256;2023-01-09T07:04:07;0.10;;;0.10;;
12177;SDS011;6152;48.728;9.256;2023-01-09T07:06:36;0.60;;;0.10;;
12177;SDS011;6152;48.728;9.256;2023-01-09T07:09:03;0.60;;;0.05;;
12177;SDS011;6152;48.728;9.256;2023-01-09T07:11:30;4.68;;;0.20;;
12177;SDS011;6152;48.728;9.256;2023-01-09T07:13:56;0.50;;;0.30;;
12177;SDS011;6152;48.728;9.256;2023-01-09T07:16:22;1.85;;;0.75;;
12177;SDS011;6152;48.728;9.256;2023-01-09T07:18:48;2.03;;;0.10;;
12177;SDS011;6152;48.728;9.256;2023-01-09T07:21:16;1.80;;;0.15;;
12177;SDS011;6152;48.728;9.256;2023-01-09T07:23:42;0.73;;;0.20;;
12177;SDS011;6152;48.728;9.256;2023-01-09T07:26:08;1.10;;;0.25;;
12177;SDS011;6152;48.728;9.256;2023-01-09T07:28:34;3.00;;;0.63;;
12177;SDS011;6152;48.728;9.256;2023-01-09T07:31:00;1.25;;;0.20;;
12177;SDS011;6152;48.728;9.256;2023-01-09T07:33:28;0.77;;;0.10;;
12177;SDS011;6152;48.728;9.256;2023-01-09T07:35:54;0.57;;;0.30;;
12177;SDS011;6152;48.728;9.256;2023-01-09T07:38:21;1.60;;;0.10;;
12177;SDS011;6152;48.728;9.256;2023-01-09T07:40:47;1.20;;;0.20;;
12177;SDS011;6152;48.728;9.256;2023-01-09T07:43:13;1.08;;;0.20;;
12177;SDS011;6152;48.728;9.256;2023-01-09T07:45:39;2.08;;;0.20;;
12177;SDS011;6152;48.728;9.256;2023-01-09T07:48:05;2.00;;;0.30;;
12177;SDS011;6152;48.728;9.256;2023-01-09T07:50:31;0.40;;;0.40;;
12177;SDS011;6152;48.728;9.256;2023-01-09T07:52:57;0.20;;;0.20;;
12177;SDS011;6152;48.728;9.256;2023-01-09T07:55:24;0.50;;;0.20;;
12177;SDS011;6152;48.728;9.256;2023-01-09T07:57:50;1.10;;;0.20;;
12177;SDS011;6152;48.728;9.256;2023-01-09T08:00:17;1.67;;;0.25;;
12177;SDS011;6152;48.728;9.256;2023-01-09T08:02:45;1.38;;;0.20;;
12177;SDS011;6152;48.728;9.256;2023-01-09T08:05:15;1.63;;;0.30;;
12177;SDS011;6152;48.728;9.256;2023-01-09T08:07:42;0.60;;;0.13;;
12177;SDS011;6152;48.728;9.256;2023-01-09T08:10:09;2.13;;;0.20;;
12177;SDS011;6152;48.728;9.256;2023-01-09T08:12:36;0.55;;;0.35;;
12177;SDS011;6152;48.728;9.256;2023-01-09T08:15:06;1.98;;;0.20;;
12177;SDS011;6152;48.728;9.256;2023-01-09T08:17:32;1.65;;;0.20;;
12177;SDS011;6152;48.728;9.256;2023-01-09T08:19:58;0.10;;;0.10;;
12177;SDS011;6152;48.728;9.256;2023-01-09T08:22:24;3.40;;;0.30;;
12177;SDS011;6152;48.728;9.256;2023-01-09T08:24:50;1.00;;;0.20;;
12177;SDS011;6152;48.728;9.256;2023-01-09T08:27:16;1.67;;;0.20;;
12177;SDS011;6152;48.728;9.256;2023-01-09T08:29:42;1.25;;;0.30;;
12177;SDS011;6152;48.728;9.256;2023-01-09T08:32:09;1.20;;;0.22;;
12177;SDS011;6152;48.728;9.256;2023-01-09T08:34:35;2.90;;;0.25;;
12177;SDS011;6152;48.728;9.256;2023-01-09T08:37:01;1.42;;;0.20;;
12177;SDS011;6152;48.728;9.256;2023-01-09T08:39:27;1.63;;;0.20;;
12177;SDS011;6152;48.728;9.256;2023-01-09T08:41:53;0.82;;;0.32;;
12177;SDS011;6152;48.728;9.256;2023-01-09T08:44:38;0.45;;;0.20;;
12177;SDS011;6152;48.728;9.256;2023-01-09T08:47:22;0.50;;;0.10;;
12177;SDS011;6152;48.728;9.256;2023-01-09T08:49:49;0.20;;;0.20;;
12177;SDS011;6152;48.728;9.256;2023-01-09T08:52:15;0.75;;;0.30;;
12177;SDS011;6152;48.728;9.256;2023-01-09T08:54:42;2.55;;;0.20;;
12177;SDS011;6152;48.728;9.256;2023-01-09T08:57:08;3.55;;;0.20;;
12177;SDS011;6152;48.728;9.256;2023-01-09T08:59:34;3.53;;;0.40;;
12177;SDS011;6152;48.728;9.256;2023-01-09T09:02:00;1.38;;;0.38;;
12177;SDS011;6152;48.728;9.256;2023-01-09T09:04:27;0.85;;;0.20;;
12177;SDS011;6152;48.728;9.256;2023-01-09T09:06:53;2.55;;;0.35;;
12177;SDS011;6152;48.728;9.256;2023-01-09T09:09:19;1.73;;;0.30;;
12177;SDS011;6152;48.728;9.256;2023-01-09T09:11:45;0.63;;;0.20;;
12177;SDS011;6152;48.728;9.256;2023-01-09T09:14:11;0.82;;;0.20;;
12177;SDS011;6152;48.728;9.256;2023-01-09T09:16:56;1.20;;;0.20;;
12177;SDS011;6152;48.728;9.256;2023-01-09T09:19:22;0.73;;;0.30;;
12177;SDS011;6152;48.728;9.256;2023-01-09T09:21:48;0.90;;;0.30;;
12177;SDS011;6152;48.728;9.256;2023-01-09T09:24:14;0.82;;;0.20;;
12177;SDS011;6152;48.728;9.256;2023-01-09T09:26:40;1.52;;;0.30;;
12177;SDS011;6152;48.728;9.256;2023-01-09T09:29:06;3.30;;;0.22;;
12177;SDS011;6152;48.728;9.256;2023-01-09T09:31:32;1.15;;;0.13;;
12177;SDS011;6152;48.728;9.256;2023-01-09T09:34:00;3.10;;;0.30;;
12177;SDS011;6152;48.728;9.256;2023-01-09T09:36:27;3.20;;;0.30;;
12177;SDS011;6152;48.728;9.256;2023-01-09T09:38:53;1.25;;;0.20;;
12177;SDS011;6152;48.728;9.256;2023-01-09T09:55:20;1.88;;;0.20;;
12177;SDS011;6152;48.728;9.256;2023-01-09T09:57:51;1.55;;;0.28;;
12177;SDS011;6152;48.728;9.256;2023-01-09T10:00:19;0.82;;;0.13;;
12177;SDS011;6152;48.728;9.256;2023-01-09T10:02:50;0.47;;;0.30;;
12177;SDS011;6152;48.728;9.256;2023-01-09T10:05:34;0.90;;;0.25;;
12177;SDS011;6152;48.728;9.256;2023-01-09T10:08:08;0.30;;;0.30;;
12177;SDS011;6152;48.728;9.256;2023-01-09T10:10:55;2.08;;;0.30;;
12177;SDS011;6152;48.728;9.256;2023-01-09T10:13:22;1.73;;;0.52;;
12177;SDS011;6152;48.728;9.256;2023-01-09T10:16:20;1.20;;;0.20;;
12177;SDS011;6152;48.728;9.256;2023-01-09T10:35:33;2.60;;;0.40;;
12177;SDS011;6152;48.728;9.256;2023-01-09T10:38:12;1.50;;;0.40;;
12177;SDS011;6152;48.728;9.256;2023-01-09T10:40:54;0.68;;;0.20;;
12177;SDS011;6152;48.728;9.256;2023-01-09T10:44:05;0.85;;;0.20;;
12177;SDS011;6152;48.728;9.256;2023-01-09T10:46:43;1.08;;;0.32;;
12177;SDS011;6152;48.728;9.256;2023-01-09T10:49:16;2.03;;;0.38;;
12177;SDS011;6152;48.728;9.256;2023-01-09T10:54:18;1.48;;;0.50;;
12177;SDS011;6152;48.728;9.256;2023-01-09T10:59:24;4.05;;;0.38;;
12177;SDS011;6152;48.728;9.256;2023-01-09T11:01:50;3.30;;;0.20;;
12177;SDS011;6152;48.728;9.256;2023-01-09T11:04:25;2.60;;;0.20;;
12177;SDS011;6152;48.728;9.256;2023-01-09T11:07:01;1.95;;;0.30;;
12177;SDS011;6152;48.728;9.256;2023-01-09T11:12:27;1.40;;;0.28;;
12177;SDS011;6152;48.728;9.256;2023-01-09T11:17:43;0.90;;;0.40;;
12177;SDS011;6152;48.728;9.256;2023-01-09T11:20:19;1.90;;;0.40;;
12177;SDS011;6152;48.728;9.256;2023-01-09T11:22:51;2.15;;;0.30;;
12177;SDS011;6152;48.728;9.256;2023-01-09T11:25:20;3.35;;;0.30;;
12177;SDS011;6152;48.728;9.256;2023-01-09T11:30:27;1.55;;;0.30;;
12177;SDS011;6152;48.728;9.256;2023-01-09T11:32:54;2.95;;;0.50;;
12177;SDS011;6152;48.728;9.256;2023-01-09T11:35:23;1.25;;;0.30;;
12177;SDS011;6152;48.728;9.256;2023-01-09T11:38:43;2.30;;;0.30;;
12177;SDS011;6152;48.728;9.256;2023-01-09T11:40:49;2.83;;;0.50;;
12177;SDS011;6152;48.728;9.256;2023-01-09T11:43:20;0.85;;;0.43;;
12177;SDS011;6152;48.728;9.256;2023-01-09T11:45:55;0.85;;;0.40;;
12177;SDS011;6152;48.728;9.256;2023-01-09T11:48:32;2.88;;;0.30;;
12177;SDS011;6152;48.728;9.256;2023-01-09T11:51:36;1.02;;;0.40;;
12177;SDS011;6152;48.728;9.256;2023-01-09T11:56:40;0.98;;;0.40;;
12177;SDS011;6152;48.728;9.256;2023-01-09T11:59:11;1.52;;;0.40;;
12177;SDS011;6152;48.728;9.256;2023-01-09T12:04:24;1.33;;;0.32;;
12177;SDS011;6152;48.728;9.256;2023-01-09T12:07:01;0.68;;;0.30;;
12177;SDS011;6152;48.728;9.256;2023-01-09T12:26:30;2.80;;;0.40;;
12177;SDS011;6152;48.728;9.256;2023-01-09T12:40:50;1.50;;;0.38;;
12177;SDS011;6152;48.728;9.256;2023-01-09T12:43:37;2.65;;;0.25;;
12177;SDS011;6152;48.728;9.256;2023-01-09T12:46:25;0.95;;;0.30;;
12177;SDS011;6152;48.728;9.256;2023-01-09T12:52:06;3.25;;;0.40;;
12177;SDS011;6152;48.728;9.256;2023-01-09T12:57:47;1.70;;;0.73;;
12177;SDS011;6152;48.728;9.256;2023-01-09T13:02:44;1.55;;;0.30;;
12177;SDS011;6152;48.728;9.256;2023-01-09T13:05:17;2.22;;;0.40;;
12177;SDS011;6152;48.728;9.256;2023-01-09T13:07:48;2.10;;;0.22;;
12177;SDS011;6152;48.728;9.256;2023-01-09T13:10:29;1.33;;;0.38;;
12177;SDS011;6152;48.728;9.256;2023-01-09T13:13:01;3.47;;;0.28;;
12177;SDS011;6152;48.728;9.256;2023-01-09T13:15:56;0.98;;;0.40;;
12177;SDS011;6152;48.728;9.256;2023-01-09T13:18:28;3.47;;;0.80;;
12177;SDS011;6152;48.728;9.256;2023-01-09T13:21:07;2.10;;;0.75;;
12177;SDS011;6152;48.728;9.256;2023-01-09T13:23:42;2.58;;;0.40;;
12177;SDS011;6152;48.728;9.256;2023-01-09T13:26:26;2.22;;;0.77;;
12177;SDS011;6152;48.728;9.256;2023-01-09T13:29:00;1.65;;;0.30;;
12177;SDS011;6152;48.728;9.256;2023-01-09T13:34:22;3.50;;;0.50;;
12177;SDS011;6152;48.728;9.256;2023-01-09T13:36:51;2.17;;;0.20;;
12177;SDS011;6152;48.728;9.256;2023-01-09T13:39:23;0.35;;;0.20;;
12177;SDS011;6152;48.728;9.256;2023-01-09T13:41:59;1.58;;;0.40;;
12177;SDS011;6152;48.728;9.256;2023-01-09T13:44:49;1.50;;;0.22;;
12177;SDS011;6152;48.728;9.256;2023-01-09T13:47:26;0.85;;;0.22;;
12177;SDS011;6152;48.728;9.256;2023-01-09T13:49:56;1.50;;;0.28;;
12177;SDS011;6152;48.728;9.256;2023-01-09T13:52:32;1.48;;;0.20;;
12177;SDS011;6152;48.728;9.256;2023-01-09T14:03:04;0.38;;;0.10;;
12177;SDS011;6152;48.728;9.256;2023-01-09T14:08:13;0.45;;;0.13;;
12177;SDS011;6152;48.728;9.256;2023-01-09T14:10:47;0.45;;;0.10;;
12177;SDS011;6152;48.728;9.256;2023-01-09T14:13:20;1.05;;;0.20;;
12177;SDS011;6152;48.728;9.256;2023-01-09T14:15:51;2.08;;;0.25;;
12177;SDS011;6152;48.728;9.256;2023-01-09T14:18:33;1.27;;;0.13;;
12177;SDS011;6152;48.728;9.256;2023-01-09T14:21:05;1.58;;;0.10;;
12177;SDS011;6152;48.728;9.256;2023-01-09T14:26:23;0.17;;;0.10;;
12177;SDS011;6152;48.728;9.256;2023-01-09T14:34:51;0.60;;;0.17;;
12177;SDS011;6152;48.728;9.256;2023-01-09T14:37:22;0.10;;;0.10;;
12177;SDS011;6152;48.728;9.256;2023-01-09T14:39:51;1.95;;;0.20;;
12177;SDS011;6152;48.728;9.256;2023-01-09T14:42:19;0.90;;;0.20;;
12177;SDS011;6152;48.728;9.256;2023-01-09T14:44:51;0.10;;;0.10;;
12177;SDS011;6152;48.728;9.256;2023-01-09T14:50:14;0.35;;;0.17;;
12177;SDS011;6152;48.728;9.256;2023-01-09T14:52:48;0.40;;;0.20;;
12177;SDS011;6152;48.728;9.256;2023-01-09T14:55:22;0.55;;;0.30;;
12177;SDS011;6152;48.728;9.256;2023-01-09T15:00:45;0.63;;;0.20;;
12177;SDS011;6152;48.728;9.256;2023-01-09T15:06:15;0.65;;;0.22;;
12177;SDS011;6152;48.728;9.256;2023-01-09T15:08:59;0.50;;;0.40;;
12177;SDS011;6152;48.728;9.256;2023-01-09T15:11:31;0.30;;;0.20;;
12177;SDS011;6152;48.728;9.256;2023-01-09T15:14:01;1.38;;;0.28;;
12177;SDS011;6152;48.728;9.256;2023-01-09T15:16:27;0.52;;;0.22;;
12177;SDS011;6152;48.728;9.256;2023-01-09T15:18:55;1.73;;;0.43;;
12177;SDS011;6152;48.728;9.256;2023-01-09T15:21:28;1.30;;;0.40;;
12177;SDS011;6152;48.728;9.256;2023-01-09T15:26:53;0.85;;;0.20;;
12177;SDS011;6152;48.728;9.256;2023-01-09T15:29:21;0.63;;;0.20;;
12177;SDS011;6152;48.728;9.256;2023-01-09T15:31:48;0.30;;;0.13;;
12177;SDS011;6152;48.728;9.256;2023-01-09T15:34:19;1.70;;;0.20;;
12177;SDS011;6152;48.728;9.256;2023-01-09T15:36:47;0.80;;;0.30;;
12177;SDS011;6152;48.728;9.256;2023-01-09T15:39:24;0.43;;;0.10;;
12177;SDS011;6152;48.728;9.256;2023-01-09T15:42:01;0.38;;;0.30;;
12177;SDS011;6152;48.728;9.256;2023-01-09T15:44:47;0.65;;;0.20;;
12177;SDS011;6152;48.728;9.256;2023-01-09T15:47:18;1.02;;;0.28;;
12177;SDS011;6152;48.728;9.256;2023-01-09T15:49:47;0.95;;;0.20;;
12177;SDS011;6152;48.728;9.256;2023-01-09T15:52:14;0.25;;;0.20;;
12177;SDS011;6152;48.728;9.256;2023-01-09T15:54:42;0.10;;;0.10;;
12177;SDS011;6152;48.728;9.256;2023-01-09T16:00:36;0.22;;;0.20;;
12177;SDS011;6152;48.728;9.256;2023-01-09T16:03:13;1.67;;;0.30;;
12177;SDS011;6152;48.728;9.256;2023-01-09T16:05:45;1.88;;;0.60;;
12177;SDS011;6152;48.728;9.256;2023-01-09T16:08:27;0.60;;;0.35;;
12177;SDS011;6152;48.728;9.256;2023-01-09T16:11:06;0.65;;;0.30;;
12177;SDS011;6152;48.728;9.256;2023-01-09T16:13:43;1.63;;;0.28;;
12177;SDS011;6152;48.728;9.256;2023-01-09T16:16:11;0.60;;;0.30;;
12177;SDS011;6152;48.728;9.256;2023-01-09T16:18:38;1.63;;;0.73;;
12177;SDS011;6152;48.728;9.256;2023-01-09T16:23:58;1.20;;;0.65;;
12177;SDS011;6152;48.728;9.256;2023-01-09T16:26:44;1.48;;;1.00;;
12177;SDS011;6152;48.728;9.256;2023-01-09T16:29:27;1.02;;;0.50;;
12177;SDS011;6152;48.728;9.256;2023-01-09T16:32:05;0.80;;;0.30;;
12177;SDS011;6152;48.728;9.256;2023-01-09T16:34:41;0.30;;;0.30;;
12177;SDS011;6152;48.728;9.256;2023-01-09T16:37:08;0.40;;;0.20;;
12177;SDS011;6152;48.728;9.256;2023-01-09T16:39:37;0.20;;;0.20;;
12177;SDS011;6152;48.728;9.256;2023-01-09T16:42:12;1.27;;;0.30;;
12177;SDS011;6152;48.728;9.256;2023-01-09T16:44:57;0.95;;;0.32;;
12177;SDS011;6152;48.728;9.256;2023-01-09T16:47:23;0.85;;;0.35;;
12177;SDS011;6152;48.728;9.256;2023-01-09T16:49:49;1.17;;;0.50;;
12177;SDS011;6152;48.728;9.256;2023-01-09T16:52:16;0.50;;;0.20;;
12177;SDS011;6152;48.728;9.256;2023-01-09T16:54:42;0.20;;;0.20;;
12177;SDS011;6152;48.728;9.256;2023-01-09T16:57:11;1.58;;;0.22;;
12177;SDS011;6152;48.728;9.256;2023-01-09T16:59:41;1.23;;;0.20;;
12177;SDS011;6152;48.728;9.256;2023-01-09T17:02:14;2.30;;;0.30;;
12177;SDS011;6152;48.728;9.256;2023-01-09T17:04:42;0.85;;;0.17;;
12177;SDS011;6152;48.728;9.256;2023-01-09T17:07:11;2.13;;;0.20;;
12177;SDS011;6152;48.728;9.256;2023-01-09T17:09:38;1.38;;;0.25;;
12177;SDS011;6152;48.728;9.256;2023-01-09T17:12:04;0.32;;;0.28;;
12177;SDS011;6152;48.728;9.256;2023-01-09T17:14:39;0.73;;;0.45;;
12177;SDS011;6152;48.728;9.256;2023-01-09T17:17:07;0.80;;;0.40;;
12177;SDS011;6152;48.728;9.256;2023-01-09T17:19:36;0.85;;;0.30;;
12177;SDS011;6152;48.728;9.256;2023-01-09T17:22:02;0.63;;;0.40;;
12177;SDS011;6152;48.728;9.256;2023-01-09T17:24:28;1.48;;;0.20;;
12177;SDS011;6152;48.728;9.256;2023-01-09T17:27:13;2.00;;;0.20;;
12177;SDS011;6152;48.728;9.256;2023-01-09T17:29:58;1.55;;;0.30;;
12177;SDS011;6152;48.728;9.256;2023-01-09T17:32:24;0.43;;;0.20;;
12177;SDS011;6152;48.728;9.256;2023-01-09T17:34:50;1.05;;;0.20;;
12177;SDS011;6152;48.728;9.256;2023-01-09T17:37:17;1.17;;;0.30;;
12177;SDS011;6152;48.728;9.256;2023-01-09T17:39:43;0.43;;;0.35;;
12177;SDS011;6152;48.728;9.256;2023-01-09T17:42:10;1.65;;;0.30;;
12177;SDS011;6152;48.728;9.256;2023-01-09T17:44:36;0.35;;;0.35;;
12177;SDS011;6152;48.728;9.256;2023-01-09T17:47:02;0.20;;;0.20;;
12177;SDS011;6152;48.728;9.256;2023-01-09T17:49:30;0.10;;;0.10;;
12177;SDS011;6152;48.728;9.256;2023-01-09T17:51:56;0.20;;;0.20;;
12177;SDS011;6152;48.728;9.256;2023-01-09T17:54:22;0.35;;;0.20;;
12177;SDS011;6152;48.728;9.256;2023-01-09T17:56:48;0.43;;;0.30;;